sensor_id;sensor_type;location;lat;lon;timestamp;P1;durP1;ratioP1;P2;durP2;ratioP2
77726;SDS011;68312;53.502;10.030;2023-04-24T00:00:38;9.05;;;5.57;;
77726;SDS011;68312;53.502;10.030;2023-04-24T00:03:03;9.68;;;5.38;;
77726;SDS011;68312;53.502;10.030;2023-04-24T00:05:29;11.07;;;6.13;;
77726;SDS011;68312;53.502;10.030;2023-04-24T00:07:54;8.75;;;4.97;;
77726;SDS011;68312;53.502;10.030;2023-04-24T00:10:20;9.38;;;5.82;;
77726;SDS011;68312;53.502;10.030;2023-04-24T00:12:45;7.93;;;5.03;;
77726;SDS011;68312;53.502;10.030;2023-04-24T00:15:11;9.27;;;4.93;;
77726;SDS011;68312;53.502;10.030;2023-04-24T00:17:37;7.00;;;5.55;;
77726;SDS011;68312;53.502;10.030;2023-04-24T00:20:05;10.68;;;4.95;;
77726;SDS011;68312;53.502;10.030;2023-04-24T00:22:31;7.45;;;4.38;;
77726;SDS011;68312;53.502;10.030;2023-04-24T00:24:56;6.07;;;3.90;;
77726;SDS011;68312;53.502;10.030;2023-04-24T00:27:22;7.20;;;4.50;;
77726;SDS011;68312;53.502;10.030;2023-04-24T00:29:48;7.53;;;4.82;;
77726;SDS011;68312;53.502;10.030;2023-04-24T00:32:14;8.80;;;4.78;;
77726;SDS011;68312;53.502;10.030;2023-04-24T00:34:40;8.30;;;4.57;;
77726;SDS011;68312;53.502;10.030;2023-04-24T00:37:06;8.55;;;5.05;;
77726;SDS011;68312;53.502;10.030;2023-04-24T00:39:32;6.20;;;4.47;;
77726;SDS011;68312;53.502;10.030;2023-04-24T00:41:57;6.32;;;4.50;;
77726;SDS011;68312;53.502;10.030;2023-04-24T00:44:23;11.30;;;5.55;;
77726;SDS011;68312;53.502;10.030;2023-04-24T00:46:49;7.68;;;4.97;;
77726;SDS011;68312;53.502;10.030;2023-04-24T00:49:15;7.03;;;4.22;;
77726;SDS011;68312;53.502;10.030;2023-04-24T00:51:41;6.13;;;4.20;;
77726;SDS011;68312;53.502;10.030;2023-04-24T00:54:06;6.78;;;4.43;;
77726;SDS011;68312;53.502;10.030;2023-04-24T00:56:31;9.05;;;5.45;;
77726;SDS011;68312;53.502;10.030;2023-04-24T00:58:57;7.03;;;4.72;;
77726;SDS011;68312;53.502;10.030;2023-04-24T01:01:24;7.47;;;5.13;;
77726;SDS011;68312;53.502;10.030;2023-04-24T01:03:50;7.07;;;4.43;;
77726;SDS011;68312;53.502;10.030;2023-04-24T01:06:18;6.55;;;4.90;;
77726;SDS011;68312;53.502;10.030;2023-04-24T01:08:45;10.70;;;4.40;;
77726;SDS011;68312;53.502;10.030;2023-04-24T01:11:13;8.52;;;4.75;;
77726;SDS011;68312;53.502;10.030;2023-04-24T01:13:39;7.78;;;4.85;;
77726;SDS011;68312;53.502;10.030;2023-04-24T01:16:05;8.43;;;4.85;;
77726;SDS011;68312;53.502;10.030;2023-04-24T01:18:30;7.45;;;4.43;;
77726;SDS011;68312;53.502;10.030;2023-04-24T01:20:59;9.48;;;4.78;;
77726;SDS011;68312;53.502;10.030;2023-04-24T01:23:29;5.95;;;4.32;;
77726;SDS011;68312;53.502;10.030;2023-04-24T01:25:54;7.78;;;4.35;;
77726;SDS011;68312;53.502;10.030;2023-04-24T01:28:20;6.45;;;4.40;;
77726;SDS011;68312;53.502;10.030;2023-04-24T01:30:47;6.45;;;4.25;;
77726;SDS011;68312;53.502;10.030;2023-04-24T01:33:13;6.55;;;4.38;;
77726;SDS011;68312;53.502;10.030;2023-04-24T01:35:39;7.85;;;4.00;;
77726;SDS011;68312;53.502;10.030;2023-04-24T01:38:05;6.15;;;4.13;;
77726;SDS011;68312;53.502;10.030;2023-04-24T01:40:31;5.88;;;4.47;;
77726;SDS011;68312;53.502;10.030;2023-04-24T01:42:57;9.48;;;4.38;;
77726;SDS011;68312;53.502;10.030;2023-04-24T01:45:23;7.32;;;4.05;;
77726;SDS011;68312;53.502;10.030;2023-04-24T01:47:49;5.85;;;3.53;;
77726;SDS011;68312;53.502;10.030;2023-04-24T01:50:15;6.70;;;3.83;;
77726;SDS011;68312;53.502;10.030;2023-04-24T01:52:42;6.45;;;3.83;;
77726;SDS011;68312;53.502;10.030;2023-04-24T01:55:08;7.15;;;3.20;;
77726;SDS011;68312;53.502;10.030;2023-04-24T01:57:35;5.00;;;3.10;;
77726;SDS011;68312;53.502;10.030;2023-04-24T02:00:01;5.57;;;3.70;;
77726;SDS011;68312;53.502;10.030;2023-04-24T02:02:31;6.30;;;5.05;;
77726;SDS011;68312;53.502;10.030;2023-04-24T02:04:57;5.50;;;3.60;;
77726;SDS011;68312;53.502;10.030;2023-04-24T02:07:22;5.15;;;2.95;;
77726;SDS011;68312;53.502;10.030;2023-04-24T02:09:48;4.55;;;2.85;;
77726;SDS011;68312;53.502;10.030;2023-04-24T02:12:14;4.70;;;2.80;;
77726;SDS011;68312;53.502;10.030;2023-04-24T02:14:40;4.85;;;2.92;;
77726;SDS011;68312;53.502;10.030;2023-04-24T02:17:06;4.03;;;2.85;;
77726;SDS011;68312;53.502;10.030;2023-04-24T02:19:31;5.95;;;2.90;;
77726;SDS011;68312;53.502;10.030;2023-04-24T02:21:57;5.60;;;3.22;;
77726;SDS011;68312;53.502;10.030;2023-04-24T02:24:22;6.22;;;3.33;;
77726;SDS011;68312;53.502;10.030;2023-04-24T02:26:48;4.50;;;2.92;;
77726;SDS011;68312;53.502;10.030;2023-04-24T02:29:13;5.60;;;3.00;;
77726;SDS011;68312;53.502;10.030;2023-04-24T02:31:39;4.25;;;2.63;;
77726;SDS011;68312;53.502;10.030;2023-04-24T02:34:04;5.30;;;3.05;;
77726;SDS011;68312;53.502;10.030;2023-04-24T02:36:29;4.85;;;2.75;;
77726;SDS011;68312;53.502;10.030;2023-04-24T02:38:55;4.05;;;2.85;;
77726;SDS011;68312;53.502;10.030;2023-04-24T02:41:20;4.15;;;2.55;;
77726;SDS011;68312;53.502;10.030;2023-04-24T02:43:46;4.93;;;2.67;;
77726;SDS011;68312;53.502;10.030;2023-04-24T02:46:11;4.68;;;2.30;;
77726;SDS011;68312;53.502;10.030;2023-04-24T02:48:37;3.88;;;2.47;;
77726;SDS011;68312;53.502;10.030;2023-04-24T02:51:03;4.40;;;2.70;;
77726;SDS011;68312;53.502;10.030;2023-04-24T02:53:28;3.00;;;2.03;;
77726;SDS011;68312;53.502;10.030;2023-04-24T02:55:54;4.43;;;2.47;;
77726;SDS011;68312;53.502;10.030;2023-04-24T02:58:19;3.13;;;1.92;;
77726;SDS011;68312;53.502;10.030;2023-04-24T03:00:45;2.67;;;1.60;;
77726;SDS011;68312;53.502;10.030;2023-04-24T03:03:11;3.38;;;2.00;;
77726;SDS011;68312;53.502;10.030;2023-04-24T03:05:36;2.95;;;1.95;;
77726;SDS011;68312;53.502;10.030;2023-04-24T03:08:02;3.45;;;2.20;;
77726;SDS011;68312;53.502;10.030;2023-04-24T03:10:27;3.22;;;2.15;;
77726;SDS011;68312;53.502;10.030;2023-04-24T03:12:53;2.47;;;1.58;;
77726;SDS011;68312;53.502;10.030;2023-04-24T03:15:18;3.22;;;1.55;;
77726;SDS011;68312;53.502;10.030;2023-04-24T03:17:44;2.78;;;1.80;;
77726;SDS011;68312;53.502;10.030;2023-04-24T03:20:09;2.97;;;1.58;;
77726;SDS011;68312;53.502;10.030;2023-04-24T03:22:35;2.75;;;1.50;;
77726;SDS011;68312;53.502;10.030;2023-04-24T03:25:00;2.70;;;1.60;;
77726;SDS011;68312;53.502;10.030;2023-04-24T03:27:26;2.70;;;1.35;;
77726;SDS011;68312;53.502;10.030;2023-04-24T03:29:52;3.30;;;1.52;;
77726;SDS011;68312;53.502;10.030;2023-04-24T03:32:17;2.63;;;1.40;;
77726;SDS011;68312;53.502;10.030;2023-04-24T03:34:43;2.63;;;1.60;;
77726;SDS011;68312;53.502;10.030;2023-04-24T03:37:08;2.20;;;1.30;;
77726;SDS011;68312;53.502;10.030;2023-04-24T03:39:34;3.80;;;1.63;;
77726;SDS011;68312;53.502;10.030;2023-04-24T03:41:59;2.67;;;1.73;;
77726;SDS011;68312;53.502;10.030;2023-04-24T03:44:25;3.08;;;1.70;;
77726;SDS011;68312;53.502;10.030;2023-04-24T03:46:50;3.85;;;1.77;;
77726;SDS011;68312;53.502;10.030;2023-04-24T03:49:16;2.70;;;1.70;;
77726;SDS011;68312;53.502;10.030;2023-04-24T03:51:41;2.65;;;1.45;;
77726;SDS011;68312;53.502;10.030;2023-04-24T03:54:06;2.42;;;1.60;;
77726;SDS011;68312;53.502;10.030;2023-04-24T03:56:32;2.28;;;1.48;;
77726;SDS011;68312;53.502;10.030;2023-04-24T03:58:57;3.65;;;1.58;;
77726;SDS011;68312;53.502;10.030;2023-04-24T04:01:23;2.63;;;1.40;;
77726;SDS011;68312;53.502;10.030;2023-04-24T04:03:48;2.42;;;1.35;;
77726;SDS011;68312;53.502;10.030;2023-04-24T04:06:14;4.03;;;1.58;;
77726;SDS011;68312;53.502;10.030;2023-04-24T04:08:39;2.50;;;1.70;;
77726;SDS011;68312;53.502;10.030;2023-04-24T04:11:04;2.80;;;1.63;;
77726;SDS011;68312;53.502;10.030;2023-04-24T04:13:30;2.38;;;1.40;;
77726;SDS011;68312;53.502;10.030;2023-04-24T04:15:55;2.47;;;1.60;;
77726;SDS011;68312;53.502;10.030;2023-04-24T04:18:21;4.93;;;1.55;;
77726;SDS011;68312;53.502;10.030;2023-04-24T04:20:46;3.88;;;1.63;;
77726;SDS011;68312;53.502;10.030;2023-04-24T04:23:12;2.50;;;1.45;;
77726;SDS011;68312;53.502;10.030;2023-04-24T04:25:37;2.15;;;1.40;;
77726;SDS011;68312;53.502;10.030;2023-04-24T04:28:03;2.60;;;1.50;;
77726;SDS011;68312;53.502;10.030;2023-04-24T04:30:28;2.50;;;1.45;;
77726;SDS011;68312;53.502;10.030;2023-04-24T04:32:54;2.13;;;1.30;;
77726;SDS011;68312;53.502;10.030;2023-04-24T04:35:19;2.20;;;1.20;;
77726;SDS011;68312;53.502;10.030;2023-04-24T04:37:45;1.83;;;1.13;;
77726;SDS011;68312;53.502;10.030;2023-04-24T04:40:10;2.85;;;1.20;;
77726;SDS011;68312;53.502;10.030;2023-04-24T04:42:36;2.65;;;1.40;;
77726;SDS011;68312;53.502;10.030;2023-04-24T04:45:01;2.67;;;1.40;;
77726;SDS011;68312;53.502;10.030;2023-04-24T04:47:27;3.15;;;1.63;;
77726;SDS011;68312;53.502;10.030;2023-04-24T04:49:53;2.15;;;1.30;;
77726;SDS011;68312;53.502;10.030;2023-04-24T04:52:19;3.88;;;1.60;;
77726;SDS011;68312;53.502;10.030;2023-04-24T04:54:44;3.65;;;1.70;;
77726;SDS011;68312;53.502;10.030;2023-04-24T04:57:10;2.10;;;1.40;;
77726;SDS011;68312;53.502;10.030;2023-04-24T04:59:35;2.25;;;1.52;;
77726;SDS011;68312;53.502;10.030;2023-04-24T05:02:01;2.17;;;1.00;;
77726;SDS011;68312;53.502;10.030;2023-04-24T05:04:26;1.67;;;1.20;;
77726;SDS011;68312;53.502;10.030;2023-04-24T05:06:52;2.00;;;1.27;;
77726;SDS011;68312;53.502;10.030;2023-04-24T05:09:17;2.00;;;1.25;;
77726;SDS011;68312;53.502;10.030;2023-04-24T05:11:43;2.05;;;1.23;;
77726;SDS011;68312;53.502;10.030;2023-04-24T05:14:09;1.77;;;1.00;;
77726;SDS011;68312;53.502;10.030;2023-04-24T05:16:34;2.50;;;1.38;;
77726;SDS011;68312;53.502;10.030;2023-04-24T05:19:00;2.00;;;1.15;;
77726;SDS011;68312;53.502;10.030;2023-04-24T05:21:25;1.92;;;1.15;;
77726;SDS011;68312;53.502;10.030;2023-04-24T05:23:51;2.45;;;1.17;;
77726;SDS011;68312;53.502;10.030;2023-04-24T05:26:16;1.70;;;1.00;;
77726;SDS011;68312;53.502;10.030;2023-04-24T05:28:42;2.28;;;0.88;;
77726;SDS011;68312;53.502;10.030;2023-04-24T05:31:07;1.65;;;1.08;;
77726;SDS011;68312;53.502;10.030;2023-04-24T05:33:32;1.42;;;0.82;;
77726;SDS011;68312;53.502;10.030;2023-04-24T05:35:58;1.92;;;0.90;;
77726;SDS011;68312;53.502;10.030;2023-04-24T05:38:23;3.47;;;0.85;;
77726;SDS011;68312;53.502;10.030;2023-04-24T05:40:49;1.98;;;0.98;;
77726;SDS011;68312;53.502;10.030;2023-04-24T05:43:14;3.35;;;1.25;;
77726;SDS011;68312;53.502;10.030;2023-04-24T05:45:40;1.95;;;0.90;;
77726;SDS011;68312;53.502;10.030;2023-04-24T05:48:05;3.60;;;0.93;;
77726;SDS011;68312;53.502;10.030;2023-04-24T05:50:32;3.13;;;0.80;;
77726;SDS011;68312;53.502;10.030;2023-04-24T05:52:57;1.70;;;0.90;;
77726;SDS011;68312;53.502;10.030;2023-04-24T05:55:23;2.65;;;1.40;;
77726;SDS011;68312;53.502;10.030;2023-04-24T05:57:50;1.88;;;0.95;;
77726;SDS011;68312;53.502;10.030;2023-04-24T06:00:15;1.70;;;1.10;;
77726;SDS011;68312;53.502;10.030;2023-04-24T06:02:41;1.48;;;1.08;;
77726;SDS011;68312;53.502;10.030;2023-04-24T06:05:07;2.13;;;1.10;;
77726;SDS011;68312;53.502;10.030;2023-04-24T06:07:33;3.17;;;0.90;;
77726;SDS011;68312;53.502;10.030;2023-04-24T06:09:58;1.67;;;0.80;;
77726;SDS011;68312;53.502;10.030;2023-04-24T06:12:25;3.60;;;1.08;;
77726;SDS011;68312;53.502;10.030;2023-04-24T06:14:50;2.30;;;1.20;;
77726;SDS011;68312;53.502;10.030;2023-04-24T06:17:16;1.73;;;1.10;;
77726;SDS011;68312;53.502;10.030;2023-04-24T06:19:41;2.10;;;1.30;;
77726;SDS011;68312;53.502;10.030;2023-04-24T06:22:07;2.55;;;1.33;;
77726;SDS011;68312;53.502;10.030;2023-04-24T06:24:33;1.83;;;1.10;;
77726;SDS011;68312;53.502;10.030;2023-04-24T06:26:59;2.10;;;1.23;;
77726;SDS011;68312;53.502;10.030;2023-04-24T06:29:25;2.55;;;1.23;;
77726;SDS011;68312;53.502;10.030;2023-04-24T06:31:50;4.38;;;1.30;;
77726;SDS011;68312;53.502;10.030;2023-04-24T06:34:16;1.85;;;1.23;;
77726;SDS011;68312;53.502;10.030;2023-04-24T06:36:41;3.22;;;1.60;;
77726;SDS011;68312;53.502;10.030;2023-04-24T06:39:06;1.88;;;1.20;;
77726;SDS011;68312;53.502;10.030;2023-04-24T06:41:32;2.33;;;1.45;;
77726;SDS011;68312;53.502;10.030;2023-04-24T06:43:57;2.25;;;1.50;;
77726;SDS011;68312;53.502;10.030;2023-04-24T06:46:23;3.33;;;1.60;;
77726;SDS011;68312;53.502;10.030;2023-04-24T06:48:48;2.22;;;1.40;;
77726;SDS011;68312;53.502;10.030;2023-04-24T06:51:15;2.40;;;1.40;;
77726;SDS011;68312;53.502;10.030;2023-04-24T06:53:40;2.40;;;1.40;;
77726;SDS011;68312;53.502;10.030;2023-04-24T06:56:06;2.75;;;1.48;;
77726;SDS011;68312;53.502;10.030;2023-04-24T06:58:31;4.22;;;2.28;;
77726;SDS011;68312;53.502;10.030;2023-04-24T07:00:57;2.63;;;1.77;;
77726;SDS011;68312;53.502;10.030;2023-04-24T07:03:22;2.15;;;1.52;;
77726;SDS011;68312;53.502;10.030;2023-04-24T07:05:48;2.35;;;1.60;;
77726;SDS011;68312;53.502;10.030;2023-04-24T07:08:13;2.78;;;1.60;;
77726;SDS011;68312;53.502;10.030;2023-04-24T07:10:39;2.65;;;1.70;;
77726;SDS011;68312;53.502;10.030;2023-04-24T07:13:04;5.57;;;1.95;;
77726;SDS011;68312;53.502;10.030;2023-04-24T07:15:30;2.80;;;2.03;;
77726;SDS011;68312;53.502;10.030;2023-04-24T07:17:55;4.45;;;1.90;;
77726;SDS011;68312;53.502;10.030;2023-04-24T07:20:21;3.13;;;2.13;;
77726;SDS011;68312;53.502;10.030;2023-04-24T07:22:46;3.92;;;2.40;;
77726;SDS011;68312;53.502;10.030;2023-04-24T07:25:12;4.28;;;2.05;;
77726;SDS011;68312;53.502;10.030;2023-04-24T07:27:37;3.40;;;2.20;;
77726;SDS011;68312;53.502;10.030;2023-04-24T07:30:03;3.30;;;2.00;;
77726;SDS011;68312;53.502;10.030;2023-04-24T07:32:30;3.25;;;2.28;;
77726;SDS011;68312;53.502;10.030;2023-04-24T07:34:55;3.40;;;2.30;;
77726;SDS011;68312;53.502;10.030;2023-04-24T07:37:21;4.72;;;1.90;;
77726;SDS011;68312;53.502;10.030;2023-04-24T07:39:47;3.45;;;2.15;;
77726;SDS011;68312;53.502;10.030;2023-04-24T07:42:13;3.20;;;2.30;;
77726;SDS011;68312;53.502;10.030;2023-04-24T07:44:38;3.75;;;2.42;;
77726;SDS011;68312;53.502;10.030;2023-04-24T07:47:04;2.88;;;2.13;;
77726;SDS011;68312;53.502;10.030;2023-04-24T07:49:29;3.00;;;2.15;;
77726;SDS011;68312;53.502;10.030;2023-04-24T07:51:55;5.65;;;2.30;;
77726;SDS011;68312;53.502;10.030;2023-04-24T07:54:20;3.47;;;2.42;;
77726;SDS011;68312;53.502;10.030;2023-04-24T07:56:46;5.18;;;2.80;;
77726;SDS011;68312;53.502;10.030;2023-04-24T07:59:13;3.42;;;1.88;;
77726;SDS011;68312;53.502;10.030;2023-04-24T08:01:38;3.67;;;2.63;;
77726;SDS011;68312;53.502;10.030;2023-04-24T08:04:04;4.03;;;2.60;;
77726;SDS011;68312;53.502;10.030;2023-04-24T08:06:29;4.32;;;2.85;;
77726;SDS011;68312;53.502;10.030;2023-04-24T08:08:55;7.07;;;3.50;;
77726;SDS011;68312;53.502;10.030;2023-04-24T08:11:21;4.47;;;2.95;;
77726;SDS011;68312;53.502;10.030;2023-04-24T08:13:47;4.75;;;3.20;;
77726;SDS011;68312;53.502;10.030;2023-04-24T08:16:12;3.63;;;2.60;;
77726;SDS011;68312;53.502;10.030;2023-04-24T08:18:38;5.20;;;3.20;;
77726;SDS011;68312;53.502;10.030;2023-04-24T08:21:04;5.05;;;2.90;;
77726;SDS011;68312;53.502;10.030;2023-04-24T08:23:29;4.15;;;2.97;;
77726;SDS011;68312;53.502;10.030;2023-04-24T08:25:55;3.97;;;3.10;;
77726;SDS011;68312;53.502;10.030;2023-04-24T08:28:21;5.00;;;3.03;;
77726;SDS011;68312;53.502;10.030;2023-04-24T08:30:47;4.53;;;3.17;;
77726;SDS011;68312;53.502;10.030;2023-04-24T08:33:12;4.65;;;3.50;;
77726;SDS011;68312;53.502;10.030;2023-04-24T08:35:39;6.60;;;3.85;;
77726;SDS011;68312;53.502;10.030;2023-04-24T08:38:05;6.30;;;3.88;;
77726;SDS011;68312;53.502;10.030;2023-04-24T08:40:30;5.22;;;4.10;;
77726;SDS011;68312;53.502;10.030;2023-04-24T08:42:59;6.45;;;4.03;;
77726;SDS011;68312;53.502;10.030;2023-04-24T08:45:26;9.55;;;3.88;;
77726;SDS011;68312;53.502;10.030;2023-04-24T08:47:54;6.65;;;4.63;;
77726;SDS011;68312;53.502;10.030;2023-04-24T08:50:22;6.10;;;4.25;;
77726;SDS011;68312;53.502;10.030;2023-04-24T08:52:49;6.30;;;4.43;;
77726;SDS011;68312;53.502;10.030;2023-04-24T08:55:17;5.72;;;3.13;;
77726;SDS011;68312;53.502;10.030;2023-04-24T08:57:42;5.10;;;3.50;;
77726;SDS011;68312;53.502;10.030;2023-04-24T09:00:11;4.72;;;2.80;;
77726;SDS011;68312;53.502;10.030;2023-04-24T09:02:39;4.40;;;3.13;;
77726;SDS011;68312;53.502;10.030;2023-04-24T09:05:07;6.60;;;3.40;;
77726;SDS011;68312;53.502;10.030;2023-04-24T09:07:34;4.50;;;2.80;;
77726;SDS011;68312;53.502;10.030;2023-04-24T09:10:04;5.85;;;3.47;;
77726;SDS011;68312;53.502;10.030;2023-04-24T09:12:32;4.88;;;3.50;;
77726;SDS011;68312;53.502;10.030;2023-04-24T09:15:00;4.78;;;3.20;;
77726;SDS011;68312;53.502;10.030;2023-04-24T09:17:27;5.68;;;4.15;;
77726;SDS011;68312;53.502;10.030;2023-04-24T09:19:53;4.78;;;3.22;;
77726;SDS011;68312;53.502;10.030;2023-04-24T09:22:18;5.80;;;3.70;;
77726;SDS011;68312;53.502;10.030;2023-04-24T09:24:45;5.68;;;4.03;;
77726;SDS011;68312;53.502;10.030;2023-04-24T09:27:11;6.88;;;3.92;;
77726;SDS011;68312;53.502;10.030;2023-04-24T09:29:37;6.40;;;3.50;;
77726;SDS011;68312;53.502;10.030;2023-04-24T09:32:17;4.57;;;3.63;;
77726;SDS011;68312;53.502;10.030;2023-04-24T09:37:20;10.15;;;3.92;;
77726;SDS011;68312;53.502;10.030;2023-04-24T09:42:56;9.10;;;4.68;;
77726;SDS011;68312;53.502;10.030;2023-04-24T09:45:22;5.82;;;4.35;;
77726;SDS011;68312;53.502;10.030;2023-04-24T09:48:00;6.97;;;4.32;;
77726;SDS011;68312;53.502;10.030;2023-04-24T09:50:26;5.28;;;3.97;;
77726;SDS011;68312;53.502;10.030;2023-04-24T09:52:58;6.72;;;3.78;;
77726;SDS011;68312;53.502;10.030;2023-04-24T09:55:28;7.20;;;4.47;;
77726;SDS011;68312;53.502;10.030;2023-04-24T09:57:57;7.30;;;4.50;;
77726;SDS011;68312;53.502;10.030;2023-04-24T10:00:27;6.03;;;3.88;;
77726;SDS011;68312;53.502;10.030;2023-04-24T10:03:03;6.53;;;4.18;;
77726;SDS011;68312;53.502;10.030;2023-04-24T10:05:33;7.15;;;4.45;;
77726;SDS011;68312;53.502;10.030;2023-04-24T10:08:03;6.75;;;4.40;;
77726;SDS011;68312;53.502;10.030;2023-04-24T10:10:40;8.32;;;5.25;;
77726;SDS011;68312;53.502;10.030;2023-04-24T10:13:10;7.32;;;4.20;;
77726;SDS011;68312;53.502;10.030;2023-04-24T10:15:38;7.75;;;4.53;;
77726;SDS011;68312;53.502;10.030;2023-04-24T10:18:05;9.05;;;5.25;;
77726;SDS011;68312;53.502;10.030;2023-04-24T10:20:34;8.00;;;4.82;;
77726;SDS011;68312;53.502;10.030;2023-04-24T10:23:03;8.00;;;5.47;;
77726;SDS011;68312;53.502;10.030;2023-04-24T10:25:30;10.68;;;6.20;;
77726;SDS011;68312;53.502;10.030;2023-04-24T10:27:59;10.27;;;5.68;;
77726;SDS011;68312;53.502;10.030;2023-04-24T10:30:27;9.25;;;5.65;;
77726;SDS011;68312;53.502;10.030;2023-04-24T10:33:00;11.82;;;6.63;;
77726;SDS011;68312;53.502;10.030;2023-04-24T10:35:31;12.32;;;6.93;;
77726;SDS011;68312;53.502;10.030;2023-04-24T10:38:10;10.43;;;6.75;;
77726;SDS011;68312;53.502;10.030;2023-04-24T10:40:41;13.18;;;7.00;;
77726;SDS011;68312;53.502;10.030;2023-04-24T10:43:08;13.93;;;6.70;;
77726;SDS011;68312;53.502;10.030;2023-04-24T10:45:34;13.05;;;7.63;;
77726;SDS011;68312;53.502;10.030;2023-04-24T10:48:17;10.93;;;6.90;;
77726;SDS011;68312;53.502;10.030;2023-04-24T10:50:52;10.50;;;6.60;;
77726;SDS011;68312;53.502;10.030;2023-04-24T10:53:19;10.25;;;6.32;;
77726;SDS011;68312;53.502;10.030;2023-04-24T10:55:52;9.00;;;5.53;;
77726;SDS011;68312;53.502;10.030;2023-04-24T10:58:44;11.07;;;6.15;;
77726;SDS011;68312;53.502;10.030;2023-04-24T11:01:25;10.88;;;5.50;;
77726;SDS011;68312;53.502;10.030;2023-04-24T11:03:57;9.68;;;5.38;;
77726;SDS011;68312;53.502;10.030;2023-04-24T11:06:32;9.05;;;6.00;;
77726;SDS011;68312;53.502;10.030;2023-04-24T11:09:05;11.10;;;5.95;;
77726;SDS011;68312;53.502;10.030;2023-04-24T11:11:36;9.50;;;5.70;;
77726;SDS011;68312;53.502;10.030;2023-04-24T11:14:04;8.93;;;5.82;;
77726;SDS011;68312;53.502;10.030;2023-04-24T11:16:36;11.07;;;6.43;;
77726;SDS011;68312;53.502;10.030;2023-04-24T11:26:59;9.75;;;5.85;;
77726;SDS011;68312;53.502;10.030;2023-04-24T11:35:18;10.32;;;5.80;;
77726;SDS011;68312;53.502;10.030;2023-04-24T11:37:48;8.02;;;5.10;;
77726;SDS011;68312;53.502;10.030;2023-04-24T11:40:19;7.57;;;4.95;;
77726;SDS011;68312;53.502;10.030;2023-04-24T11:42:47;8.10;;;5.05;;
77726;SDS011;68312;53.502;10.030;2023-04-24T11:45:17;10.50;;;5.63;;
77726;SDS011;68312;53.502;10.030;2023-04-24T11:47:55;8.50;;;4.93;;
77726;SDS011;68312;53.502;10.030;2023-04-24T11:50:22;8.45;;;4.97;;
77726;SDS011;68312;53.502;10.030;2023-04-24T11:52:50;10.32;;;5.72;;
77726;SDS011;68312;53.502;10.030;2023-04-24T11:57:52;5.72;;;3.58;;
77726;SDS011;68312;53.502;10.030;2023-04-24T12:00:22;7.25;;;4.53;;
77726;SDS011;68312;53.502;10.030;2023-04-24T12:03:10;7.78;;;4.40;;
77726;SDS011;68312;53.502;10.030;2023-04-24T12:05:37;9.45;;;4.65;;
77726;SDS011;68312;53.502;10.030;2023-04-24T12:08:04;5.00;;;3.70;;
77726;SDS011;68312;53.502;10.030;2023-04-24T12:10:30;6.85;;;3.97;;
77726;SDS011;68312;53.502;10.030;2023-04-24T12:12:59;5.55;;;3.60;;
77726;SDS011;68312;53.502;10.030;2023-04-24T12:15:24;7.68;;;3.70;;
77726;SDS011;68312;53.502;10.030;2023-04-24T12:17:52;5.47;;;3.55;;
77726;SDS011;68312;53.502;10.030;2023-04-24T12:20:29;7.68;;;4.80;;
77726;SDS011;68312;53.502;10.030;2023-04-24T12:22:58;6.63;;;4.88;;
77726;SDS011;68312;53.502;10.030;2023-04-24T12:25:26;8.48;;;5.22;;
77726;SDS011;68312;53.502;10.030;2023-04-24T12:30:29;7.45;;;4.47;;
77726;SDS011;68312;53.502;10.030;2023-04-24T12:33:00;7.10;;;4.50;;
77726;SDS011;68312;53.502;10.030;2023-04-24T12:35:28;7.28;;;4.57;;
77726;SDS011;68312;53.502;10.030;2023-04-24T12:38:10;9.10;;;4.60;;
77726;SDS011;68312;53.502;10.030;2023-04-24T12:40:38;5.88;;;4.07;;
77726;SDS011;68312;53.502;10.030;2023-04-24T12:43:14;8.00;;;4.50;;
77726;SDS011;68312;53.502;10.030;2023-04-24T12:45:43;7.18;;;4.20;;
77726;SDS011;68312;53.502;10.030;2023-04-24T12:48:08;5.15;;;3.40;;
77726;SDS011;68312;53.502;10.030;2023-04-24T12:50:34;6.07;;;3.38;;
77726;SDS011;68312;53.502;10.030;2023-04-24T12:52:59;5.05;;;3.80;;
77726;SDS011;68312;53.502;10.030;2023-04-24T12:55:25;5.28;;;3.08;;
77726;SDS011;68312;53.502;10.030;2023-04-24T12:57:50;5.75;;;3.45;;
77726;SDS011;68312;53.502;10.030;2023-04-24T13:00:16;4.90;;;3.13;;
77726;SDS011;68312;53.502;10.030;2023-04-24T13:02:42;4.50;;;3.08;;
77726;SDS011;68312;53.502;10.030;2023-04-24T13:05:08;4.82;;;3.13;;
77726;SDS011;68312;53.502;10.030;2023-04-24T13:07:33;5.65;;;2.92;;
77726;SDS011;68312;53.502;10.030;2023-04-24T13:09:59;5.10;;;3.15;;
77726;SDS011;68312;53.502;10.030;2023-04-24T13:12:25;6.57;;;3.88;;
77726;SDS011;68312;53.502;10.030;2023-04-24T13:14:50;4.93;;;3.38;;
77726;SDS011;68312;53.502;10.030;2023-04-24T13:17:16;4.90;;;3.53;;
77726;SDS011;68312;53.502;10.030;2023-04-24T13:19:42;6.38;;;3.75;;
77726;SDS011;68312;53.502;10.030;2023-04-24T13:22:09;6.53;;;3.83;;
77726;SDS011;68312;53.502;10.030;2023-04-24T13:24:37;4.82;;;3.22;;
77726;SDS011;68312;53.502;10.030;2023-04-24T13:27:04;6.20;;;3.95;;
77726;SDS011;68312;53.502;10.030;2023-04-24T13:29:30;7.07;;;4.03;;
77726;SDS011;68312;53.502;10.030;2023-04-24T13:31:55;5.05;;;3.50;;
77726;SDS011;68312;53.502;10.030;2023-04-24T13:34:22;5.30;;;3.83;;
77726;SDS011;68312;53.502;10.030;2023-04-24T13:36:50;6.20;;;3.53;;
77726;SDS011;68312;53.502;10.030;2023-04-24T13:39:19;5.18;;;3.90;;
77726;SDS011;68312;53.502;10.030;2023-04-24T13:41:45;5.75;;;3.78;;
77726;SDS011;68312;53.502;10.030;2023-04-24T13:44:10;4.18;;;3.13;;
77726;SDS011;68312;53.502;10.030;2023-04-24T13:46:36;5.43;;;3.38;;
77726;SDS011;68312;53.502;10.030;2023-04-24T13:49:02;6.18;;;3.97;;
77726;SDS011;68312;53.502;10.030;2023-04-24T13:51:28;5.95;;;3.60;;
77726;SDS011;68312;53.502;10.030;2023-04-24T13:53:53;4.80;;;3.80;;
77726;SDS011;68312;53.502;10.030;2023-04-24T13:56:19;6.22;;;3.22;;
77726;SDS011;68312;53.502;10.030;2023-04-24T13:58:45;5.93;;;3.50;;
77726;SDS011;68312;53.502;10.030;2023-04-24T14:01:10;5.47;;;3.70;;
77726;SDS011;68312;53.502;10.030;2023-04-24T14:03:37;8.35;;;3.70;;
77726;SDS011;68312;53.502;10.030;2023-04-24T14:06:03;5.20;;;3.83;;
77726;SDS011;68312;53.502;10.030;2023-04-24T14:08:28;4.50;;;3.45;;
77726;SDS011;68312;53.502;10.030;2023-04-24T14:10:54;5.78;;;3.45;;
77726;SDS011;68312;53.502;10.030;2023-04-24T14:13:19;5.97;;;3.40;;
77726;SDS011;68312;53.502;10.030;2023-04-24T14:15:45;6.22;;;3.75;;
77726;SDS011;68312;53.502;10.030;2023-04-24T14:18:11;5.45;;;3.60;;
77726;SDS011;68312;53.502;10.030;2023-04-24T14:20:37;4.80;;;3.72;;
77726;SDS011;68312;53.502;10.030;2023-04-24T14:23:03;4.75;;;3.13;;
77726;SDS011;68312;53.502;10.030;2023-04-24T14:25:28;6.03;;;2.92;;
77726;SDS011;68312;53.502;10.030;2023-04-24T14:27:54;6.47;;;2.95;;
77726;SDS011;68312;53.502;10.030;2023-04-24T14:30:19;5.03;;;3.00;;
77726;SDS011;68312;53.502;10.030;2023-04-24T14:32:45;4.28;;;2.72;;
77726;SDS011;68312;53.502;10.030;2023-04-24T14:35:10;3.67;;;2.42;;
77726;SDS011;68312;53.502;10.030;2023-04-24T14:37:36;3.28;;;2.10;;
77726;SDS011;68312;53.502;10.030;2023-04-24T14:40:02;3.90;;;2.17;;
77726;SDS011;68312;53.502;10.030;2023-04-24T14:42:29;3.70;;;2.30;;
77726;SDS011;68312;53.502;10.030;2023-04-24T14:44:54;3.95;;;2.53;;
77726;SDS011;68312;53.502;10.030;2023-04-24T14:47:20;4.97;;;2.25;;
77726;SDS011;68312;53.502;10.030;2023-04-24T14:49:45;5.22;;;3.15;;
77726;SDS011;68312;53.502;10.030;2023-04-24T14:52:11;4.78;;;3.15;;
77726;SDS011;68312;53.502;10.030;2023-04-24T14:54:36;6.25;;;3.30;;